Time;durP1;ratioP1;P1;durP2;ratioP2;P2;SDS_P1;SDS_P2;PMS_P1;PMS_P2;Temp;Humidity;BMP_temperature;BMP_pressure;BME280_temperature;BME280_humidity;BME280_pressure;Samples;Min_cycle;Max_cycle;Signal;HPM_P1;HPM_P2
2022/04/06 00:02:09;;;;;;;18.15;14.65;;;8.00;99.90;;;;;;5019930;28;20244;-74
2022/04/06 00:04:36;;;;;;;18.40;13.20;;;8.00;99.90;;;;;;5020237;28;20769;-75
2022/04/06 00:07:05;;;;;;;16.55;10.75;;;8.10;99.90;;;;;;5019904;28;20198;-75
2022/04/06 00:09:37;;;;;;;11.88;8.25;;;8.10;99.90;;;;;;5020671;28;20234;-74
2022/04/06 00:12:05;;;;;;;10.15;8.45;;;8.20;99.90;;;;;;5020449;28;20435;-74
2022/04/06 00:14:35;;;;;;;8.75;7.35;;;8.20;99.90;;;;;;5020977;28;20233;-74
2022/04/06 00:17:05;;;;;;;10.35;8.07;;;8.20;99.90;;;;;;5024064;28;20428;-74
2022/04/06 00:19:34;;;;;;;7.53;6.65;;;8.20;99.90;;;;;;5040821;28;20301;-73
2022/04/06 00:22:03;;;;;;;8.27;6.38;;;8.30;99.90;;;;;;5037329;28;20465;-73
2022/04/06 00:24:31;;;;;;;7.47;6.57;;;8.40;99.90;;;;;;5040581;28;20650;-75
2022/04/06 00:26:59;;;;;;;6.18;5.57;;;8.50;99.90;;;;;;5040833;28;20205;-75
2022/04/06 00:29:27;;;;;;;6.97;5.38;;;8.60;99.90;;;;;;5040115;28;20251;-76
2022/04/06 00:31:56;;;;;;;6.35;5.75;;;8.70;99.90;;;;;;5040296;28;20230;-75
2022/04/06 00:37:07;;;;;;;6.78;5.10;;;8.90;99.90;;;;;;5033912;28;20236;-76
2022/04/06 00:39:35;;;;;;;6.40;5.30;;;8.80;99.90;;;;;;5018955;28;20297;-77
2022/04/06 00:42:04;;;;;;;5.90;5.30;;;8.80;99.90;;;;;;5020466;28;20233;-77
2022/04/06 00:44:34;;;;;;;6.85;6.18;;;8.80;99.90;;;;;;5019349;28;20198;-76
2022/04/06 00:47:04;;;;;;;5.75;4.93;;;8.80;99.90;;;;;;5019800;28;20516;-77
2022/04/06 00:49:33;;;;;;;6.75;6.15;;;8.80;99.90;;;;;;5020619;28;20686;-77
2022/04/06 00:52:03;;;;;;;6.25;5.32;;;8.80;99.90;;;;;;5023680;28;20251;-78
2022/04/06 00:54:32;;;;;;;6.90;5.00;;;8.90;99.90;;;;;;5027202;28;20202;-77
2022/04/06 00:57:00;;;;;;;7.85;5.10;;;8.90;99.90;;;;;;5033292;28;20225;-76
2022/04/06 00:59:30;;;;;;;6.90;5.47;;;8.90;99.90;;;;;;5034467;28;20198;-76
2022/04/06 01:01:59;;;;;;;6.25;5.55;;;8.90;99.90;;;;;;5037178;28;20316;-78
2022/04/06 01:04:29;;;;;;;5.80;5.20;;;9.00;99.90;;;;;;5054471;28;20209;-78
2022/04/06 01:06:57;;;;;;;9.75;6.20;;;9.00;99.90;;;;;;5046972;28;20212;-76
2022/04/06 01:09:26;;;;;;;5.30;4.90;;;8.90;99.90;;;;;;5040764;28;20205;-78
2022/04/06 01:11:54;;;;;;;5.80;5.28;;;8.90;99.90;;;;;;5039907;28;20659;-76
2022/04/06 01:14:22;;;;;;;6.00;5.45;;;8.90;99.90;;;;;;5039757;28;20220;-77
2022/04/06 01:17:01;;;;;;;5.75;5.25;;;8.90;99.90;;;;;;5039213;28;20232;-76
2022/04/06 01:19:35;;;;;;;5.40;4.72;;;9.00;99.90;;;;;;5039126;28;20288;-76
2022/04/06 01:22:08;;;;;;;5.45;4.93;;;9.00;99.90;;;;;;5040914;28;20247;-77
2022/04/06 01:24:37;;;;;;;5.40;3.95;;;8.90;99.90;;;;;;5040138;28;20635;-75
2022/04/06 01:27:06;;;;;;;6.13;4.57;;;8.90;99.90;;;;;;5038563;28;20285;-74
2022/04/06 01:29:34;;;;;;;5.60;5.03;;;8.90;99.90;;;;;;5038121;28;20236;-74
2022/04/06 01:32:13;;;;;;;6.60;5.00;;;8.90;99.90;;;;;;5038832;28;20489;-74
2022/04/06 01:34:41;;;;;;;5.40;4.90;;;8.90;99.90;;;;;;5037873;28;20193;-78
2022/04/06 01:37:12;;;;;;;6.72;5.00;;;8.90;99.90;;;;;;5038102;28;20221;-78
2022/04/06 01:39:41;;;;;;;6.10;5.50;;;8.90;99.90;;;;;;5037747;28;20475;-75
2022/04/06 01:42:11;;;;;;;4.90;4.47;;;8.90;99.90;;;;;;5038203;28;20260;-75
2022/04/06 01:44:40;;;;;;;5.57;5.03;;;8.90;99.90;;;;;;5038849;28;20816;-75
2022/04/06 01:47:09;;;;;;;5.70;5.20;;;9.00;99.90;;;;;;5038882;28;20194;-75
2022/04/06 01:52:24;;;;;;;6.00;4.85;;;8.90;99.90;;;;;;5038181;28;20809;-74
2022/04/06 01:54:54;;;;;;;5.05;4.43;;;9.00;99.90;;;;;;5038654;28;20216;-75
2022/04/06 01:57:23;;;;;;;5.70;4.72;;;8.90;99.90;;;;;;5035128;28;20245;-74
2022/04/06 01:59:51;;;;;;;3.85;3.55;;;8.90;99.90;;;;;;5033308;28;20209;-74
2022/04/06 02:02:20;;;;;;;4.97;4.45;;;8.90;99.90;;;;;;5042529;28;20208;-77
2022/04/06 02:04:48;;;;;;;5.22;4.72;;;8.90;99.90;;;;;;5042968;28;20233;-78
2022/04/06 02:07:17;;;;;;;4.05;3.55;;;8.80;99.90;;;;;;5045618;28;20197;-78
2022/04/06 02:09:46;;;;;;;5.30;4.80;;;8.80;99.90;;;;;;5045029;28;20203;-78
2022/04/06 02:12:14;;;;;;;4.00;3.70;;;8.80;99.90;;;;;;5046183;28;20277;-77
2022/04/06 02:14:43;;;;;;;3.92;3.63;;;8.80;99.90;;;;;;5023205;28;20297;-78
2022/04/06 02:17:11;;;;;;;4.07;3.78;;;8.80;99.90;;;;;;5023545;28;20218;-77
2022/04/06 02:19:39;;;;;;;5.60;3.67;;;8.80;99.90;;;;;;5030891;28;20212;-77
2022/04/06 02:22:09;;;;;;;4.93;3.85;;;8.80;99.90;;;;;;5042076;28;20228;-77
2022/04/06 02:24:37;;;;;;;6.10;4.30;;;8.70;99.90;;;;;;5041404;28;20210;-74
2022/04/06 02:27:08;;;;;;;5.80;3.90;;;8.70;99.90;;;;;;5041892;28;20493;-74
2022/04/06 02:29:38;;;;;;;4.72;3.90;;;8.70;99.90;;;;;;5041082;28;20493;-78
2022/04/06 02:32:07;;;;;;;4.65;4.25;;;8.70;99.90;;;;;;5042767;28;20638;-77
2022/04/06 02:34:35;;;;;;;4.57;3.55;;;8.70;99.90;;;;;;5042986;28;20216;-75
2022/04/06 02:37:04;;;;;;;4.25;3.85;;;8.70;99.90;;;;;;5041514;28;20229;-76
2022/04/06 02:39:32;;;;;;;4.15;3.67;;;8.70;99.90;;;;;;5042022;28;20684;-76
2022/04/06 02:42:00;;;;;;;3.80;3.50;;;8.70;99.90;;;;;;5041916;28;20257;-76
2022/04/06 02:44:29;;;;;;;3.90;3.50;;;8.70;99.90;;;;;;5043275;28;20280;-77
2022/04/06 02:46:57;;;;;;;4.65;4.13;;;8.70;99.90;;;;;;5043821;28;20194;-78
2022/04/06 02:49:25;;;;;;;4.07;3.78;;;8.70;99.90;;;;;;5040810;28;20209;-74
2022/04/06 02:51:53;;;;;;;4.18;3.80;;;8.70;99.90;;;;;;5027130;28;20305;-75
2022/04/06 02:54:21;;;;;;;4.60;4.20;;;8.60;99.90;;;;;;5022961;28;20291;-74
2022/04/06 02:56:49;;;;;;;5.55;4.88;;;8.70;99.90;;;;;;5022640;28;20221;-75
2022/04/06 02:59:17;;;;;;;4.35;3.95;;;8.70;99.90;;;;;;5022765;28;20209;-76
2022/04/06 03:01:46;;;;;;;5.18;4.55;;;8.70;99.90;;;;;;5023109;28;20222;-76
2022/04/06 03:04:14;;;;;;;18.60;7.07;;;8.70;99.90;;;;;;5028433;28;20284;-74
2022/04/06 03:06:42;;;;;;;6.55;5.35;;;8.60;99.90;;;;;;5042420;28;20217;-75
2022/04/06 03:09:10;;;;;;;7.13;6.43;;;8.60;99.90;;;;;;5041259;28;20586;-74
2022/04/06 03:11:38;;;;;;;9.07;6.90;;;8.70;99.90;;;;;;5041368;28;20230;-76
2022/04/06 03:14:06;;;;;;;7.25;6.55;;;8.70;99.90;;;;;;5042554;28;20198;-76
2022/04/06 03:16:34;;;;;;;8.70;6.95;;;8.60;99.90;;;;;;5042502;28;20210;-76
2022/04/06 03:19:03;;;;;;;13.98;9.15;;;8.60;99.90;;;;;;5041992;28;20655;-75
2022/04/06 03:21:30;;;;;;;22.92;8.82;;;8.60;99.90;;;;;;5042227;28;20328;-77
2022/04/06 03:23:58;;;;;;;8.75;7.85;;;8.70;99.90;;;;;;5043713;28;20533;-82
2022/04/06 03:26:26;;;;;;;11.50;8.50;;;8.70;99.90;;;;;;5046198;28;20550;-80
2022/04/06 03:28:54;;;;;;;13.25;8.27;;;8.80;99.90;;;;;;5050967;28;20723;-83
2022/04/06 03:31:22;;;;;;;11.88;9.35;;;8.80;99.90;;;;;;5055077;28;20805;-79
2022/04/06 03:33:50;;;;;;;14.05;9.75;;;8.70;99.90;;;;;;5044403;28;20411;-79
2022/04/06 03:36:20;;;;;;;16.65;10.25;;;8.70;99.90;;;;;;5043532;28;20296;-79
2022/04/06 03:38:48;;;;;;;14.45;10.73;;;8.70;99.90;;;;;;5043141;28;20304;-79
2022/04/06 03:41:16;;;;;;;11.95;9.63;;;8.70;99.90;;;;;;5043621;28;20232;-79
2022/04/06 03:43:44;;;;;;;12.80;9.68;;;8.70;99.90;;;;;;5041561;28;20431;-78
2022/04/06 03:46:13;;;;;;;17.05;10.63;;;8.80;99.90;;;;;;5041491;28;20724;-78
2022/04/06 03:48:41;;;;;;;16.05;10.55;;;8.70;99.90;;;;;;5025696;28;20214;-79
2022/04/06 03:51:09;;;;;;;17.42;11.05;;;8.80;99.90;;;;;;5021738;28;20244;-78
2022/04/06 03:53:38;;;;;;;19.00;10.93;;;8.80;99.90;;;;;;5021832;28;20206;-78
2022/04/06 03:56:06;;;;;;;18.13;12.18;;;8.80;99.90;;;;;;5023679;28;20212;-80
2022/04/06 03:58:35;;;;;;;23.10;13.00;;;8.80;99.90;;;;;;5027761;28;20325;-79
2022/04/06 04:01:03;;;;;;;21.05;11.82;;;8.80;99.90;;;;;;5023808;28;20358;-79
2022/04/06 04:03:31;;;;;;;21.15;12.82;;;8.90;99.90;;;;;;5023732;28;20619;-78
2022/04/06 04:05:59;;;;;;;20.08;12.65;;;8.90;99.90;;;;;;5023952;28;20471;-78
2022/04/06 04:08:28;;;;;;;21.55;14.30;;;8.80;99.90;;;;;;5023645;28;20206;-79
2022/04/06 04:10:57;;;;;;;17.77;12.70;;;8.80;99.90;;;;;;5024012;28;20214;-79
2022/04/06 04:13:25;;;;;;;21.50;13.88;;;8.80;99.90;;;;;;5025075;28;20198;-80
2022/04/06 04:15:53;;;;;;;20.80;13.82;;;8.80;99.90;;;;;;5024182;28;20205;-79
2022/04/06 04:18:21;;;;;;;25.95;14.25;;;8.90;99.90;;;;;;5024341;28;20594;-81
2022/04/06 04:20:49;;;;;;;26.10;14.63;;;8.90;99.90;;;;;;5023802;28;20652;-81
2022/04/06 04:23:17;;;;;;;20.05;13.63;;;8.90;99.90;;;;;;5019949;28;20210;-77
2022/04/06 04:25:45;;;;;;;23.20;15.15;;;8.90;99.90;;;;;;5019640;28;20481;-76
2022/04/06 04:28:14;;;;;;;22.65;16.17;;;8.90;99.90;;;;;;5021100;28;20571;-77
2022/04/06 04:30:42;;;;;;;25.75;16.27;;;8.90;99.90;;;;;;5023658;28;20218;-78
2022/04/06 04:33:11;;;;;;;23.02;15.55;;;8.80;99.90;;;;;;5023510;28;20202;-76
2022/04/06 04:35:39;;;;;;;25.00;15.50;;;8.90;99.90;;;;;;5037584;28;20231;-79
2022/04/06 04:38:07;;;;;;;24.38;16.45;;;8.90;99.90;;;;;;5041183;28;20223;-80
2022/04/06 04:40:35;;;;;;;31.33;17.85;;;8.80;99.90;;;;;;5042599;28;20728;-76
2022/04/06 04:43:03;;;;;;;35.05;19.45;;;8.90;99.90;;;;;;5044028;28;20213;-76
2022/04/06 04:45:32;;;;;;;29.08;17.85;;;8.90;99.90;;;;;;5042835;28;20229;-77
2022/04/06 04:48:00;;;;;;;30.15;20.02;;;9.00;99.90;;;;;;5040153;28;20205;-76
2022/04/06 04:50:28;;;;;;;31.45;20.58;;;9.00;99.90;;;;;;5041076;28;20229;-75
2022/04/06 04:52:56;;;;;;;33.03;22.45;;;9.00;99.90;;;;;;5039696;28;20206;-75
2022/04/06 04:55:24;;;;;;;27.45;18.73;;;8.90;99.90;;;;;;5041475;28;20661;-76
2022/04/06 04:57:54;;;;;;;37.03;24.15;;;9.00;99.90;;;;;;5041472;28;20193;-75
2022/04/06 05:00:23;;;;;;;38.53;22.60;;;9.00;99.90;;;;;;5042313;28;20217;-76
2022/04/06 05:02:58;;;;;;;34.40;23.65;;;8.90;99.90;;;;;;5040533;28;20665;-76
2022/04/06 05:05:26;;;;;;;36.40;24.92;;;8.90;99.90;;;;;;5041245;28;20490;-77
2022/04/06 05:07:57;;;;;;;36.05;25.38;;;8.90;99.90;;;;;;5039030;28;20616;-77
2022/04/06 05:10:25;;;;;;;43.17;27.50;;;8.90;99.90;;;;;;5038718;28;20220;-76
2022/04/06 05:12:54;;;;;;;38.38;24.30;;;8.90;99.90;;;;;;5035644;28;20208;-77
2022/04/06 05:15:22;;;;;;;35.67;25.27;;;8.90;99.90;;;;;;5040199;28;20206;-80
2022/04/06 05:17:51;;;;;;;37.63;25.40;;;9.00;99.90;;;;;;5046162;28;20290;-77
2022/04/06 05:20:20;;;;;;;44.10;28.73;;;9.00;99.90;;;;;;5044676;28;20220;-77
2022/04/06 05:22:48;;;;;;;46.05;27.42;;;9.00;99.90;;;;;;5046745;28;20225;-77
2022/04/06 05:25:16;;;;;;;43.75;28.67;;;9.00;99.90;;;;;;5045674;28;20212;-77
2022/04/06 05:27:46;;;;;;;44.25;29.45;;;9.00;99.90;;;;;;5047554;28;20216;-78
2022/04/06 05:30:15;;;;;;;40.85;28.08;;;9.00;99.90;;;;;;5046867;28;20616;-76
2022/04/06 05:32:43;;;;;;;40.20;27.17;;;9.10;99.90;;;;;;5056514;28;20256;-77
2022/04/06 05:35:13;;;;;;;46.65;28.95;;;9.10;99.90;;;;;;5055063;28;20263;-76
2022/04/06 05:37:45;;;;;;;45.35;29.08;;;9.10;99.90;;;;;;5043925;28;20193;-78
2022/04/06 05:40:17;;;;;;;43.05;28.00;;;9.10;99.90;;;;;;5048195;28;20287;-79
2022/04/06 05:42:45;;;;;;;47.60;30.20;;;9.10;99.90;;;;;;5032391;28;20296;-79
2022/04/06 05:45:15;;;;;;;40.90;27.92;;;9.20;99.90;;;;;;5045563;28;20284;-79
2022/04/06 05:47:43;;;;;;;45.10;28.50;;;9.10;99.90;;;;;;5028181;28;20210;-79
2022/04/06 05:50:12;;;;;;;42.05;26.23;;;9.20;99.90;;;;;;5023674;28;20224;-78
2022/04/06 05:52:42;;;;;;;36.63;25.13;;;9.20;99.90;;;;;;5023779;28;20206;-77
2022/04/06 05:55:10;;;;;;;39.88;24.45;;;9.20;99.90;;;;;;5023466;28;20715;-77
2022/04/06 05:57:38;;;;;;;39.88;25.50;;;9.20;99.90;;;;;;5025401;28;20203;-77
2022/04/06 06:00:08;;;;;;;37.35;23.15;;;9.20;99.90;;;;;;5025724;28;20245;-75
2022/04/06 06:02:37;;;;;;;34.63;22.55;;;9.20;99.90;;;;;;5023427;28;20298;-78
2022/04/06 06:05:05;;;;;;;37.55;22.73;;;9.20;99.90;;;;;;5030645;28;20198;-75
2022/04/06 06:07:33;;;;;;;33.83;21.30;;;9.20;99.90;;;;;;5042643;28;20189;-76
2022/04/06 06:10:03;;;;;;;37.50;21.30;;;9.30;99.90;;;;;;5043979;28;20285;-75
2022/04/06 06:12:31;;;;;;;34.97;21.13;;;9.30;99.90;;;;;;5042901;28;20212;-76
2022/04/06 06:15:00;;;;;;;32.42;20.42;;;9.40;99.90;;;;;;5037173;28;20198;-76
2022/04/06 06:17:28;;;;;;;29.35;17.15;;;9.50;99.90;;;;;;5044757;28;20212;-77
2022/04/06 06:19:56;;;;;;;28.55;18.83;;;9.40;99.90;;;;;;5043295;28;20304;-77
2022/04/06 06:22:24;;;;;;;26.15;16.15;;;9.50;99.90;;;;;;5031385;28;20234;-77
2022/04/06 06:24:53;;;;;;;23.75;14.70;;;9.50;99.90;;;;;;5029570;28;20220;-77
2022/04/06 06:27:24;;;;;;;22.00;15.20;;;9.60;99.90;;;;;;5045042;28;20300;-77
2022/04/06 06:29:52;;;;;;;21.15;14.25;;;9.70;99.90;;;;;;5058500;28;20203;-76
2022/04/06 06:32:20;;;;;;;28.98;14.40;;;9.80;99.90;;;;;;5045750;28;20210;-76
2022/04/06 06:34:48;;;;;;;22.70;13.70;;;9.90;99.90;;;;;;5028573;28;20268;-77
2022/04/06 06:37:16;;;;;;;26.88;15.90;;;9.90;99.90;;;;;;5038221;28;20225;-76
2022/04/06 06:39:44;;;;;;;20.90;13.07;;;9.90;99.90;;;;;;5035947;28;20412;-76
2022/04/06 06:42:12;;;;;;;19.13;12.50;;;10.00;99.90;;;;;;5033257;28;20207;-78
2022/04/06 06:44:41;;;;;;;23.42;12.20;;;10.10;99.90;;;;;;5027484;28;20552;-76
2022/04/06 06:47:09;;;;;;;22.17;13.23;;;10.10;99.90;;;;;;5028386;28;20236;-78
2022/04/06 06:49:37;;;;;;;20.58;13.45;;;10.10;99.90;;;;;;5042699;28;20470;-79
2022/04/06 06:52:06;;;;;;;17.75;12.57;;;10.10;99.90;;;;;;5042412;28;20226;-76
2022/04/06 06:54:34;;;;;;;23.83;15.37;;;10.20;99.90;;;;;;5043023;28;20759;-75
2022/04/06 06:57:02;;;;;;;18.60;11.48;;;10.30;99.90;;;;;;5042125;28;20463;-78
2022/04/06 06:59:30;;;;;;;20.83;13.07;;;10.20;99.90;;;;;;5039673;28;20225;-76
2022/04/06 07:01:59;;;;;;;21.30;13.68;;;10.30;99.90;;;;;;5041581;28;20283;-77
2022/04/06 07:04:30;;;;;;;19.17;12.15;;;10.30;99.90;;;;;;5024439;28;20720;-78
2022/04/06 07:06:58;;;;;;;18.88;11.35;;;10.30;99.90;;;;;;5022258;28;20281;-76
2022/04/06 07:09:26;;;;;;;21.85;13.20;;;10.30;99.90;;;;;;5022197;28;20198;-78
2022/04/06 07:11:54;;;;;;;23.30;13.20;;;10.40;99.90;;;;;;5021647;28;20321;-76
2022/04/06 07:14:22;;;;;;;22.30;11.97;;;10.50;99.90;;;;;;5030599;28;20452;-78
2022/04/06 07:16:51;;;;;;;17.40;12.73;;;10.50;99.90;;;;;;5041082;28;20486;-78
2022/04/06 07:19:20;;;;;;;25.93;12.77;;;10.60;99.90;;;;;;5023297;28;20313;-78
2022/04/06 07:21:49;;;;;;;24.10;13.48;;;10.60;99.90;;;;;;5021871;28;21189;-77
2022/04/06 07:24:17;;;;;;;22.40;13.95;;;10.70;99.90;;;;;;5021037;28;20370;-77
2022/04/06 07:26:45;;;;;;;24.93;14.03;;;10.80;99.90;;;;;;5020250;28;20659;-78
2022/04/06 07:29:15;;;;;;;22.27;15.20;;;10.80;99.90;;;;;;5027253;28;20643;-77
2022/04/06 07:31:43;;;;;;;19.60;12.73;;;10.80;99.90;;;;;;5039875;28;20496;-78
2022/04/06 07:34:12;;;;;;;23.27;15.45;;;10.70;99.90;;;;;;5035173;28;20436;-78
2022/04/06 07:36:41;;;;;;;22.33;13.97;;;10.70;99.90;;;;;;5021806;28;20280;-78
2022/04/06 07:39:09;;;;;;;19.63;13.53;;;10.70;99.90;;;;;;5026060;28;20968;-78
2022/04/06 07:41:37;;;;;;;19.47;13.67;;;10.70;99.90;;;;;;5041158;28;20998;-76
2022/04/06 07:44:06;;;;;;;29.90;14.40;;;10.80;99.90;;;;;;5040941;28;20441;-77
2022/04/06 07:46:38;;;;;;;19.83;15.07;;;10.80;99.90;;;;;;5038592;28;20468;-80
2022/04/06 07:49:07;;;;;;;26.77;16.47;;;10.80;99.90;;;;;;5039917;28;20537;-74
2022/04/06 07:51:37;;;;;;;18.92;13.35;;;10.80;99.90;;;;;;5040830;28;20472;-77
2022/04/06 07:54:06;;;;;;;25.48;15.10;;;10.70;99.90;;;;;;5041143;28;20202;-79
2022/04/06 07:56:34;;;;;;;18.73;14.35;;;10.70;99.90;;;;;;5041388;28;20197;-77
2022/04/06 07:59:02;;;;;;;23.27;14.90;;;10.70;99.90;;;;;;5042113;28;20206;-77
2022/04/06 08:01:33;;;;;;;20.40;15.60;;;10.70;99.90;;;;;;5041829;28;21175;-77
2022/04/06 08:04:01;;;;;;;21.40;15.07;;;10.70;99.90;;;;;;5028226;28;21268;-79
2022/04/06 08:06:29;;;;;;;25.47;16.87;;;10.70;99.90;;;;;;5029936;28;20455;-76
2022/04/06 08:08:59;;;;;;;23.00;15.80;;;10.70;99.90;;;;;;5034967;28;20451;-76
2022/04/06 08:11:28;;;;;;;24.80;15.57;;;10.70;99.90;;;;;;5032196;28;20475;-76
2022/04/06 08:13:56;;;;;;;18.80;14.83;;;10.60;99.90;;;;;;5033870;28;20440;-75
2022/04/06 08:16:26;;;;;;;22.03;16.00;;;10.60;99.90;;;;;;5041665;28;21101;-78
2022/04/06 08:18:54;;;;;;;21.37;15.70;;;10.60;99.90;;;;;;5039449;28;20444;-80
2022/04/06 08:21:25;;;;;;;20.90;15.63;;;10.70;99.90;;;;;;5021980;28;20859;-77
2022/04/06 08:23:53;;;;;;;20.17;15.23;;;10.70;99.90;;;;;;5022118;28;20698;-77
2022/04/06 08:26:21;;;;;;;18.15;15.77;;;10.80;99.90;;;;;;5021315;28;20441;-76
2022/04/06 08:28:51;;;;;;;19.67;14.90;;;10.80;99.90;;;;;;5024208;28;20215;-78
2022/04/06 08:31:19;;;;;;;20.77;14.70;;;10.80;99.90;;;;;;5036629;28;20512;-73
2022/04/06 08:33:47;;;;;;;22.37;15.40;;;10.80;99.90;;;;;;5030221;28;20449;-77
2022/04/06 08:36:16;;;;;;;22.33;15.10;;;10.80;99.90;;;;;;5019560;28;20448;-76
2022/04/06 08:38:46;;;;;;;23.17;15.67;;;10.70;99.90;;;;;;5021320;28;20198;-77
2022/04/06 08:41:14;;;;;;;17.67;14.48;;;10.70;99.90;;;;;;5019371;28;20487;-77
2022/04/06 08:43:42;;;;;;;21.10;14.57;;;10.60;99.90;;;;;;5019581;28;20305;-76
2022/04/06 08:46:12;;;;;;;19.25;12.90;;;10.60;99.90;;;;;;5019104;28;20206;-76
2022/04/06 08:48:40;;;;;;;22.70;14.80;;;10.60;99.90;;;;;;5020441;28;20636;-76
2022/04/06 08:51:09;;;;;;;19.65;14.02;;;10.60;99.90;;;;;;5019728;28;20899;-76
2022/04/06 08:53:42;;;;;;;16.93;14.50;;;10.60;99.90;;;;;;5019220;28;20256;-76
2022/04/06 08:56:12;;;;;;;17.93;14.50;;;10.60;99.90;;;;;;5019501;28;20812;-76
2022/04/06 08:58:40;;;;;;;16.27;13.60;;;10.70;99.90;;;;;;5020700;28;20434;-77
2022/04/06 09:01:09;;;;;;;20.80;14.57;;;10.70;99.90;;;;;;5019474;28;20489;-76
2022/04/06 09:03:39;;;;;;;17.25;13.60;;;10.60;99.90;;;;;;5019808;28;20499;-76
2022/04/06 09:06:09;;;;;;;14.85;12.90;;;10.60;99.90;;;;;;5018756;28;20202;-76
2022/04/06 09:08:39;;;;;;;23.25;12.95;;;10.60;99.90;;;;;;5019235;28;20478;-75
2022/04/06 09:11:08;;;;;;;14.93;12.25;;;10.60;99.90;;;;;;5019158;28;20230;-77
2022/04/06 09:13:37;;;;;;;20.13;12.13;;;10.70;99.90;;;;;;5019138;28;20202;-77
2022/04/06 09:16:08;;;;;;;12.30;10.60;;;10.80;99.90;;;;;;5019708;28;20202;-76
2022/04/06 09:18:40;;;;;;;15.50;12.30;;;10.80;99.90;;;;;;5019084;28;20996;-78
2022/04/06 09:21:11;;;;;;;20.55;11.18;;;10.70;99.90;;;;;;5018830;28;20326;-77
2022/04/06 09:23:40;;;;;;;12.82;10.55;;;10.70;99.90;;;;;;5018748;28;20202;-77
2022/04/06 09:26:11;;;;;;;15.02;10.50;;;10.70;99.90;;;;;;5025354;28;20202;-77
2022/04/06 09:28:42;;;;;;;13.90;9.35;;;10.60;99.90;;;;;;5031231;28;20238;-74
2022/04/06 09:31:18;;;;;;;17.07;11.27;;;10.60;99.90;;;;;;5027012;28;20659;-79
2022/04/06 09:33:58;;;;;;;14.02;10.60;;;10.50;99.90;;;;;;5024733;28;20448;-78
2022/04/06 09:36:32;;;;;;;15.95;11.18;;;10.50;99.90;;;;;;5029604;28;20206;-79
2022/04/06 09:39:00;;;;;;;12.15;10.45;;;10.50;99.90;;;;;;5036790;28;20206;-78
2022/04/06 09:41:30;;;;;;;12.32;10.82;;;10.50;99.90;;;;;;5040338;28;20309;-76
2022/04/06 09:44:08;;;;;;;12.40;10.10;;;10.50;99.90;;;;;;5040393;28;20226;-79
2022/04/06 09:49:29;;;;;;;13.57;10.52;;;10.30;99.90;;;;;;5039180;28;20259;-78
2022/04/06 09:51:57;;;;;;;17.48;12.48;;;10.20;99.90;;;;;;5038990;28;20218;-78
2022/04/06 09:54:29;;;;;;;16.10;12.10;;;10.20;99.90;;;;;;5038462;28;20631;-78
2022/04/06 09:56:58;;;;;;;14.70;12.63;;;10.10;99.90;;;;;;5039541;28;20217;-75
2022/04/06 09:59:27;;;;;;;15.77;10.90;;;10.10;99.90;;;;;;5031742;28;20218;-76
2022/04/06 10:01:57;;;;;;;13.57;10.13;;;10.20;99.90;;;;;;5023738;28;20261;-74
2022/04/06 10:04:27;;;;;;;14.57;11.48;;;10.30;99.90;;;;;;5032110;28;20205;-76
2022/04/06 10:06:58;;;;;;;10.38;9.35;;;10.30;99.90;;;;;;5033835;28;20225;-77
2022/04/06 10:09:26;;;;;;;10.35;9.30;;;10.20;99.90;;;;;;5038322;28;20198;-75
2022/04/06 10:11:57;;;;;;;10.97;8.73;;;10.20;99.90;;;;;;5037997;28;20292;-76
2022/04/06 10:14:26;;;;;;;12.50;9.07;;;10.20;99.90;;;;;;5037548;28;20468;-75
2022/04/06 10:16:55;;;;;;;13.05;9.40;;;10.10;99.90;;;;;;5038560;28;20611;-74
2022/04/06 10:19:31;;;;;;;11.25;9.73;;;10.10;99.90;;;;;;5039609;28;20194;-74
2022/04/06 10:22:05;;;;;;;12.75;10.32;;;10.10;99.90;;;;;;5042253;28;20232;-75
2022/04/06 10:24:43;;;;;;;11.95;9.35;;;10.00;99.90;;;;;;5042257;28;20703;-74
2022/04/06 10:27:21;;;;;;;12.18;9.85;;;10.10;99.90;;;;;;5030820;28;20198;-74
2022/04/06 10:30:08;;;;;;;13.75;10.55;;;10.10;99.90;;;;;;5033149;28;20212;-76
2022/04/06 10:32:37;;;;;;;17.15;10.85;;;10.20;99.90;;;;;;5033930;28;20202;-76
2022/04/06 10:35:25;;;;;;;10.65;9.30;;;10.30;99.90;;;;;;5042875;28;20201;-75
2022/04/06 10:38:20;;;;;;;10.32;9.25;;;10.30;99.90;;;;;;5043250;28;20281;-74
2022/04/06 10:40:59;;;;;;;13.52;9.55;;;10.40;99.90;;;;;;5041085;28;20456;-75
2022/04/06 10:43:52;;;;;;;15.80;9.15;;;10.40;99.90;;;;;;5030909;28;20222;-74
2022/04/06 10:46:34;;;;;;;11.82;8.80;;;10.50;99.90;;;;;;5037946;28;20248;-79
2022/04/06 10:49:15;;;;;;;13.57;10.85;;;10.40;99.90;;;;;;5041073;28;20205;-76
2022/04/06 10:51:48;;;;;;;15.65;10.70;;;10.40;99.90;;;;;;5041291;28;20300;-75
2022/04/06 10:54:43;;;;;;;12.27;10.20;;;10.30;99.90;;;;;;5034440;28;20206;-74
2022/04/06 10:57:14;;;;;;;11.98;9.20;;;10.20;99.90;;;;;;5032234;28;20209;-76
2022/04/06 10:59:42;;;;;;;12.07;10.32;;;10.20;99.90;;;;;;5038819;28;20206;-75
2022/04/06 11:02:23;;;;;;;24.98;11.15;;;10.10;99.90;;;;;;5042141;28;20230;-76
2022/04/06 11:04:53;;;;;;;14.00;10.68;;;10.10;99.90;;;;;;5041869;28;20201;-77
2022/04/06 11:10:29;;;;;;;15.20;11.00;;;10.10;99.90;;;;;;5041496;28;20218;-77
2022/04/06 11:12:59;;;;;;;16.85;10.30;;;10.10;99.90;;;;;;5039239;28;20223;-77
2022/04/06 11:15:37;;;;;;;14.68;10.63;;;10.10;99.90;;;;;;5041404;28;20641;-77
2022/04/06 11:18:06;;;;;;;10.97;9.80;;;10.20;99.90;;;;;;5041771;28;20216;-77
2022/04/06 11:20:35;;;;;;;11.40;10.10;;;10.20;99.90;;;;;;5040891;28;20464;-77
2022/04/06 11:23:02;;;;;;;11.88;9.80;;;10.30;99.90;;;;;;5040489;28;20248;-77
2022/04/06 11:25:32;;;;;;;12.25;10.50;;;10.30;99.90;;;;;;5041036;28;20229;-78
2022/04/06 11:28:08;;;;;;;11.18;10.00;;;10.30;99.90;;;;;;5041278;28;20202;-77
2022/04/06 11:30:38;;;;;;;12.88;9.80;;;10.30;99.90;;;;;;5041709;28;20225;-77
2022/04/06 11:33:38;;;;;;;10.35;9.13;;;10.30;99.90;;;;;;5043946;28;20399;-73
2022/04/06 11:36:13;;;;;;;12.82;9.35;;;10.30;99.90;;;;;;5037373;28;20315;-76
2022/04/06 11:38:41;;;;;;;9.80;8.85;;;10.30;99.90;;;;;;5031242;28;20257;-76
2022/04/06 11:41:11;;;;;;;13.55;9.07;;;10.40;99.90;;;;;;5024995;28;20313;-77
2022/04/06 11:43:41;;;;;;;11.32;8.75;;;10.50;99.90;;;;;;5018562;28;20357;-77
2022/04/06 11:46:09;;;;;;;15.18;9.75;;;10.50;99.90;;;;;;5034991;28;20212;-75
2022/04/06 11:48:40;;;;;;;13.45;8.73;;;10.50;99.90;;;;;;5039855;28;20198;-76
2022/04/06 11:51:09;;;;;;;11.50;8.07;;;10.50;99.90;;;;;;5042685;28;20249;-77
2022/04/06 11:53:37;;;;;;;9.05;8.15;;;10.60;99.90;;;;;;5050222;28;20464;-78
2022/04/06 11:56:05;;;;;;;12.87;8.73;;;10.70;99.90;;;;;;5049134;28;20217;-80
2022/04/06 11:58:36;;;;;;;11.00;9.27;;;10.70;99.90;;;;;;5050445;28;20821;-77
2022/04/06 12:01:07;;;;;;;9.10;8.20;;;10.80;99.90;;;;;;5048179;28;20488;-77
2022/04/06 12:03:40;;;;;;;14.73;9.90;;;10.80;99.90;;;;;;5048859;28;20907;-78
2022/04/06 12:06:10;;;;;;;10.98;7.57;;;10.90;99.90;;;;;;5042653;28;20425;-76
2022/04/06 12:08:40;;;;;;;12.03;9.70;;;10.90;99.90;;;;;;5044146;28;20223;-77
2022/04/06 12:11:08;;;;;;;10.00;9.03;;;10.90;99.90;;;;;;5041247;28;20486;-77
2022/04/06 12:13:39;;;;;;;11.93;9.80;;;11.00;99.90;;;;;;5041079;28;20459;-77
2022/04/06 12:16:08;;;;;;;12.30;11.00;;;11.10;99.90;;;;;;5041398;28;20444;-76
2022/04/06 12:18:40;;;;;;;11.33;9.13;;;11.10;99.90;;;;;;5040407;28;20547;-74
2022/04/06 12:21:23;;;;;;;17.73;9.97;;;10.90;99.90;;;;;;5042203;28;20686;-75
2022/04/06 12:23:52;;;;;;;16.23;10.45;;;10.80;99.90;;;;;;5036559;28;20492;-75
2022/04/06 12:26:23;;;;;;;17.20;11.07;;;10.60;99.90;;;;;;5031571;28;20387;-75
2022/04/06 12:28:59;;;;;;;10.80;9.70;;;10.50;99.90;;;;;;5021096;28;20264;-75
2022/04/06 12:31:34;;;;;;;14.23;10.45;;;10.40;99.90;;;;;;5033984;28;20500;-79
2022/04/06 12:34:05;;;;;;;12.10;10.32;;;10.30;99.90;;;;;;5022080;28;20205;-76
2022/04/06 12:36:33;;;;;;;16.92;12.35;;;10.20;99.90;;;;;;5025598;28;20308;-77
2022/04/06 12:39:08;;;;;;;17.75;11.20;;;10.10;99.90;;;;;;5028489;28;20472;-74
2022/04/06 12:41:51;;;;;;;14.87;10.10;;;10.20;99.90;;;;;;5037326;28;20228;-76
2022/04/06 12:44:21;;;;;;;13.88;10.25;;;10.30;99.90;;;;;;5022655;28;20743;-77
2022/04/06 12:46:50;;;;;;;12.35;11.02;;;10.40;99.90;;;;;;5030884;28;20285;-75
2022/04/06 12:49:32;;;;;;;16.80;12.63;;;10.50;99.90;;;;;;5031578;28;20204;-77
2022/04/06 12:52:05;;;;;;;19.80;12.30;;;10.80;99.90;;;;;;5017895;28;20508;-78
2022/04/06 12:54:34;;;;;;;21.50;11.17;;;11.00;99.90;;;;;;5024921;28;20855;-76
2022/04/06 12:57:05;;;;;;;14.50;9.90;;;11.20;99.90;;;;;;5039503;28;20447;-75
2022/04/06 12:59:39;;;;;;;15.93;10.93;;;11.40;99.90;;;;;;5022712;28;21083;-76
2022/04/06 13:02:22;;;;;;;21.03;10.50;;;11.50;99.90;;;;;;5033081;28;20503;-74
2022/04/06 13:04:51;;;;;;;15.30;10.23;;;11.60;99.90;;;;;;5037275;28;20536;-76